createdAt,value
2023-02-11T00:00:31.227Z,1.20
2023-02-11T00:04:21.360Z,1.20
2023-02-11T00:07:55.968Z,1.20
2023-02-11T00:11:25.574Z,1.20
2023-02-11T00:14:53.285Z,1.21
2023-02-11T00:18:20.891Z,1.20
2023-02-11T00:21:48.176Z,1.21
2023-02-11T00:25:15.336Z,1.23
2023-02-11T00:28:43.080Z,1.24
2023-02-11T00:32:11.144Z,1.25
2023-02-11T00:35:39.672Z,1.28
2023-02-11T00:39:08.473Z,1.30
2023-02-11T00:42:37.429Z,1.34
2023-02-11T00:46:04.970Z,1.36
2023-02-11T00:49:32.322Z,1.39
2023-02-11T00:53:07.483Z,1.40
2023-02-11T00:56:35.109Z,1.41
2023-02-11T01:00:02.388Z,1.41
2023-02-11T01:03:29.808Z,1.40
2023-02-11T01:06:59.464Z,1.39
2023-02-11T01:10:26.815Z,1.37
2023-02-11T01:13:53.994Z,1.38
2023-02-11T01:17:23.289Z,1.37
2023-02-11T01:20:54.012Z,1.38
2023-02-11T01:24:21.233Z,1.38
2023-02-11T01:27:48.512Z,1.38
2023-02-11T01:31:15.714Z,1.37
2023-02-11T01:34:43.069Z,1.36
2023-02-11T01:38:18.459Z,1.36
2023-02-11T01:41:45.784Z,1.34
2023-02-11T01:45:47.321Z,1.33
2023-02-11T01:49:19.810Z,1.33
2023-02-11T01:52:49.653Z,1.33
2023-02-11T01:56:35.287Z,1.33
2023-02-11T02:00:11.882Z,1.37
2023-02-11T02:03:47.285Z,1.40
2023-02-11T02:07:19.108Z,1.41
2023-02-11T02:10:48.845Z,1.41
2023-02-11T02:14:16.996Z,1.42
2023-02-11T02:17:55.202Z,1.43
2023-02-11T02:22:05.319Z,1.44
2023-02-11T02:25:49.490Z,1.45
2023-02-11T02:29:49.097Z,1.46
2023-02-11T02:33:25.669Z,1.45
2023-02-11T02:37:02.595Z,1.44
2023-02-11T02:40:33.448Z,1.44
2023-02-11T02:44:01.315Z,1.44
2023-02-11T02:47:28.636Z,1.44
2023-02-11T02:51:03.120Z,1.45
2023-02-11T02:54:45.894Z,1.45
2023-02-11T02:58:52.781Z,1.46
2023-02-11T03:02:26.559Z,1.47
2023-02-11T03:06:02.890Z,1.49
2023-02-11T03:09:36.172Z,1.51
2023-02-11T03:13:06.560Z,1.52
2023-02-11T03:16:39.185Z,1.53
2023-02-11T03:20:11.646Z,1.54
2023-02-11T03:23:42.412Z,1.55
2023-02-11T03:27:17.888Z,1.58
2023-02-11T03:30:50.774Z,1.61
2023-02-11T03:34:29.456Z,1.63
2023-02-11T03:38:02.378Z,1.65
2023-02-11T03:41:31.668Z,1.65
2023-02-11T03:45:13.245Z,1.66
2023-02-11T03:48:43.304Z,1.65
2023-02-11T03:52:12.461Z,1.64
2023-02-11T03:55:41.618Z,1.65
2023-02-11T03:59:09.188Z,1.65
2023-02-11T04:02:38.231Z,1.65
2023-02-11T04:06:06.006Z,1.66
2023-02-11T04:09:33.354Z,1.66
2023-02-11T04:13:00.510Z,1.66
2023-02-11T04:16:27.802Z,1.68
2023-02-11T04:19:55.239Z,1.69
2023-02-11T04:23:22.623Z,1.71
2023-02-11T04:26:49.836Z,1.73
2023-02-11T04:30:17.707Z,1.75
2023-02-11T04:33:44.991Z,1.78
2023-02-11T04:37:12.533Z,1.80
2023-02-11T04:40:39.821Z,1.82
2023-02-11T04:44:07.883Z,1.84
2023-02-11T04:47:35.354Z,1.85
2023-02-11T04:51:02.584Z,1.87
2023-02-11T04:54:30.011Z,1.89
2023-02-11T04:57:57.226Z,1.90
2023-02-11T05:01:24.484Z,1.91
2023-02-11T05:04:54.423Z,1.92
2023-02-11T05:08:21.596Z,1.94
2023-02-11T05:11:48.833Z,1.94
2023-02-11T05:15:16.091Z,1.93
2023-02-11T05:18:44.324Z,1.93
2023-02-11T05:22:11.643Z,1.93
2023-02-11T05:25:38.825Z,1.94
2023-02-11T05:29:06.043Z,1.95
2023-02-11T05:32:33.636Z,1.95
2023-02-11T05:36:07.043Z,1.95
2023-02-11T05:39:34.488Z,1.95
2023-02-11T05:43:01.683Z,1.95
2023-02-11T05:46:29.044Z,1.97
2023-02-11T05:49:59.585Z,2.01
2023-02-11T05:53:26.942Z,2.03
2023-02-11T05:56:54.235Z,2.04
2023-02-11T06:00:21.995Z,2.04
2023-02-11T06:03:50.211Z,2.06
2023-02-11T06:07:17.586Z,2.05
2023-02-11T06:10:47.536Z,2.06
2023-02-11T06:14:15.280Z,2.07
2023-02-11T06:17:42.440Z,2.07
2023-02-11T06:21:12.532Z,2.09
2023-02-11T06:24:59.908Z,2.11
2023-02-11T06:28:27.048Z,2.14
2023-02-11T06:31:54.396Z,2.18
2023-02-11T06:35:22.283Z,2.20
2023-02-11T06:38:50.299Z,2.22
2023-02-11T06:42:17.632Z,2.25
2023-02-11T06:45:45.406Z,2.29
2023-02-11T06:49:13.530Z,2.32
2023-02-11T06:52:40.834Z,2.33
2023-02-11T06:56:10.331Z,2.36
2023-02-11T06:59:37.603Z,2.40
2023-02-11T07:03:05.243Z,2.44
2023-02-11T07:06:32.877Z,2.48
2023-02-11T07:10:04.766Z,2.50
2023-02-11T07:13:34.953Z,2.52
2023-02-11T07:17:04.260Z,2.56
2023-02-11T07:20:34.285Z,2.61
2023-02-11T07:24:01.509Z,2.67
2023-02-11T07:27:31.817Z,2.73
2023-02-11T07:30:59.321Z,2.79
2023-02-11T07:34:26.710Z,2.89
2023-02-11T07:37:56.428Z,2.98
2023-02-11T07:41:25.584Z,3.04
2023-02-11T07:44:53.010Z,3.07
2023-02-11T07:48:20.110Z,3.12
2023-02-11T07:51:49.252Z,3.15
2023-02-11T07:55:19.680Z,3.16
2023-02-11T07:58:47.045Z,3.16
2023-02-11T08:02:23.378Z,3.20
2023-02-11T08:05:53.982Z,3.23
2023-02-11T08:09:21.188Z,3.26
2023-02-11T08:12:58.719Z,3.28
2023-02-11T08:16:28.905Z,3.29
2023-02-11T08:19:56.264Z,3.30
2023-02-11T08:23:32.183Z,3.33
2023-02-11T08:26:59.291Z,3.38
2023-02-11T08:30:27.574Z,3.45
2023-02-11T08:33:57.957Z,3.51
2023-02-11T08:37:25.165Z,3.58
2023-02-11T08:40:52.848Z,3.64
2023-02-11T08:44:21.130Z,3.68
2023-02-11T08:47:48.456Z,3.70
2023-02-11T08:51:18.646Z,3.72
2023-02-11T08:54:46.117Z,3.75
2023-02-11T08:58:13.404Z,3.81
2023-02-11T09:01:44.428Z,3.85
2023-02-11T09:05:13.123Z,3.87
2023-02-11T09:08:44.710Z,3.89
2023-02-11T09:12:15.896Z,3.89
2023-02-11T09:15:46.029Z,3.89
2023-02-11T09:19:13.585Z,3.91
2023-02-11T09:22:40.926Z,3.92
2023-02-11T09:26:11.316Z,3.95
2023-02-11T09:29:38.449Z,3.98
2023-02-11T09:33:05.854Z,4.03
2023-02-11T09:36:35.361Z,4.10
2023-02-11T09:40:02.657Z,4.17
2023-02-11T09:43:48.971Z,4.24
2023-02-11T09:47:28.821Z,4.30
2023-02-11T09:51:01.593Z,4.37
2023-02-11T09:54:35.503Z,4.48
2023-02-11T09:58:06.608Z,4.65
2023-02-11T10:01:42.992Z,4.77
2023-02-11T10:05:29.951Z,4.79
2023-02-11T10:09:05.903Z,4.76
2023-02-11T10:12:53.322Z,4.79
2023-02-11T10:16:35.226Z,4.83
2023-02-11T10:20:19.778Z,4.89
2023-02-11T10:23:51.987Z,5.06
2023-02-11T10:27:23.407Z,5.23
2023-02-11T10:30:59.002Z,5.31
2023-02-11T10:34:26.372Z,5.32
2023-02-11T10:37:53.609Z,5.31
2023-02-11T10:41:25.562Z,5.33
2023-02-11T10:45:01.611Z,5.37
2023-02-11T10:48:44.603Z,5.42
2023-02-11T10:52:23.762Z,5.47
2023-02-11T10:55:57.293Z,5.55
2023-02-11T10:59:31.396Z,5.59
2023-02-11T11:03:02.026Z,5.56
2023-02-11T11:06:35.294Z,5.54
2023-02-11T11:10:05.727Z,5.50
2023-02-11T11:13:35.022Z,5.50
2023-02-11T11:17:02.295Z,5.54
2023-02-11T11:20:32.356Z,5.58
2023-02-11T11:24:03.354Z,5.58
2023-02-11T11:27:30.799Z,5.54
2023-02-11T11:31:02.434Z,5.49
2023-02-11T11:34:33.857Z,5.42
2023-02-11T11:38:04.440Z,5.37
2023-02-11T11:41:34.946Z,5.38
2023-02-11T11:45:05.736Z,5.38
2023-02-11T11:48:40.688Z,5.36
2023-02-11T11:52:19.895Z,5.35
2023-02-11T11:55:50.754Z,5.37
2023-02-11T11:59:18.515Z,5.40
2023-02-11T12:03:16.991Z,5.42
2023-02-11T12:06:55.267Z,5.37
2023-02-11T12:10:45.604Z,5.34
2023-02-11T12:14:23.741Z,5.31
2023-02-11T12:18:05.032Z,5.28
2023-02-11T12:21:42.911Z,5.27
2023-02-11T12:25:26.349Z,5.24
2023-02-11T12:29:06.580Z,5.20
2023-02-11T12:32:41.796Z,5.19
2023-02-11T12:36:16.739Z,5.18
2023-02-11T12:39:51.736Z,5.15
2023-02-11T12:43:25.068Z,5.12
2023-02-11T12:47:03.377Z,5.08
2023-02-11T12:50:46.374Z,5.06
2023-02-11T12:54:22.028Z,5.05
2023-02-11T12:57:51.345Z,5.03
2023-02-11T13:01:23.814Z,5.03
2023-02-11T13:04:55.267Z,5.02
2023-02-11T13:08:29.099Z,5.01
2023-02-11T13:12:20.239Z,4.99
2023-02-11T13:15:51.905Z,4.99
2023-02-11T13:19:27.795Z,5.01
2023-02-11T13:23:02.884Z,5.01
2023-02-11T13:26:37.604Z,5.00
2023-02-11T13:30:32.606Z,5.00
2023-02-11T13:33:59.841Z,5.02
2023-02-11T13:37:30.078Z,5.03
2023-02-11T13:41:06.089Z,5.04
2023-02-11T13:44:36.645Z,5.05
2023-02-11T13:48:06.305Z,5.07
2023-02-11T13:51:41.804Z,5.09
2023-02-11T13:55:21.547Z,5.10
2023-02-11T13:58:52.213Z,5.11
2023-02-11T14:02:49.333Z,5.13
2023-02-11T14:07:02.595Z,5.13
2023-02-11T14:10:55.735Z,5.13
2023-02-11T14:14:29.197Z,5.12
2023-02-11T14:17:56.401Z,5.13
2023-02-11T14:21:32.422Z,5.12
2023-02-11T14:25:02.534Z,5.12
2023-02-11T14:28:36.283Z,5.13
2023-02-11T14:32:14.604Z,5.16
2023-02-11T14:35:52.219Z,5.19
2023-02-11T14:39:30.646Z,5.22
2023-02-11T14:43:03.131Z,5.23
2023-02-11T14:46:44.692Z,5.26
2023-02-11T14:50:23.325Z,5.28
2023-02-11T14:54:04.855Z,5.32
2023-02-11T14:57:33.575Z,5.35
2023-02-11T15:01:30.306Z,5.37
2023-02-11T15:05:26.278Z,5.42
2023-02-11T15:09:02.128Z,5.47
2023-02-11T15:12:30.346Z,5.53
2023-02-11T15:16:03.555Z,5.58
2023-02-11T15:19:35.051Z,5.63
2023-02-11T15:23:04.986Z,5.66
2023-02-11T15:26:32.378Z,5.70
2023-02-11T15:29:59.640Z,5.76
2023-02-11T15:33:29.966Z,5.80
2023-02-11T15:36:58.568Z,5.84
2023-02-11T15:40:29.138Z,5.87
2023-02-11T15:43:56.492Z,5.88
2023-02-11T15:47:30.875Z,5.90
2023-02-11T15:51:01.739Z,5.90
2023-02-11T15:54:32.571Z,5.90
2023-02-11T15:58:02.236Z,5.90
2023-02-11T16:01:34.016Z,5.88
2023-02-11T16:05:04.444Z,5.88
2023-02-11T16:08:33.039Z,5.88
2023-02-11T16:12:01.628Z,5.86
2023-02-11T16:15:45.789Z,5.86
2023-02-11T16:19:22.905Z,5.87
2023-02-11T16:22:51.502Z,5.89
2023-02-11T16:26:43.556Z,5.92
2023-02-11T16:30:28.740Z,5.96
2023-02-11T16:33:58.386Z,5.99
2023-02-11T16:37:28.528Z,6.02
2023-02-11T16:40:55.991Z,6.05
2023-02-11T16:44:23.363Z,6.08
2023-02-11T16:47:50.753Z,6.11
2023-02-11T16:51:17.928Z,6.12
2023-02-11T16:54:45.453Z,6.13
2023-02-11T16:58:12.676Z,6.13
2023-02-11T17:01:41.752Z,6.13
2023-02-11T17:05:18.554Z,6.13
2023-02-11T17:08:46.322Z,6.12
2023-02-11T17:12:16.790Z,6.12
2023-02-11T17:15:43.925Z,6.11
2023-02-11T17:19:13.878Z,6.11
2023-02-11T17:22:41.204Z,6.10
2023-02-11T17:26:09.252Z,6.11
2023-02-11T17:29:39.545Z,6.11
2023-02-11T17:33:06.911Z,6.10
2023-02-11T17:36:34.445Z,6.10
2023-02-11T17:40:04.222Z,6.08
2023-02-11T17:43:31.813Z,6.07
2023-02-11T17:46:59.121Z,6.05
2023-02-11T17:50:29.229Z,6.04
2023-02-11T17:54:01.182Z,6.03
2023-02-11T17:57:28.335Z,6.04
2023-02-11T18:00:58.867Z,6.05
2023-02-11T18:04:26.281Z,6.08
2023-02-11T18:07:57.112Z,6.10
2023-02-11T18:11:25.257Z,6.12
2023-02-11T18:14:58.014Z,6.14
2023-02-11T18:18:25.740Z,6.14
2023-02-11T18:21:53.006Z,6.15
2023-02-11T18:25:20.477Z,6.15
2023-02-11T18:28:47.746Z,6.15
2023-02-11T18:32:16.165Z,6.14
2023-02-11T18:35:49.323Z,6.13
2023-02-11T18:39:20.287Z,6.11
2023-02-11T18:42:48.389Z,6.11
2023-02-11T18:46:17.429Z,6.11
2023-02-11T18:49:44.661Z,6.10
2023-02-11T18:53:12.403Z,6.10
2023-02-11T18:56:50.886Z,6.09
2023-02-11T19:00:20.451Z,6.10
2023-02-11T19:03:46.489Z,6.10
2023-02-11T19:07:13.885Z,6.08
2023-02-11T19:10:45.021Z,6.08
2023-02-11T19:14:13.216Z,6.07
2023-02-11T19:17:40.476Z,6.08
2023-02-11T19:21:12.496Z,6.09
2023-02-11T19:24:49.245Z,6.09
2023-02-11T19:28:16.812Z,6.09
2023-02-11T19:31:46.898Z,6.08
2023-02-11T19:35:14.337Z,6.06
2023-02-11T19:38:41.620Z,6.04
2023-02-11T19:42:09.356Z,6.04
2023-02-11T19:45:39.727Z,6.04
2023-02-11T19:49:08.265Z,6.02
2023-02-11T19:52:38.235Z,6.01
2023-02-11T19:56:07.694Z,6.00
2023-02-11T19:59:34.992Z,5.98
2023-02-11T20:03:02.239Z,5.97
2023-02-11T20:06:33.074Z,5.96
2023-02-11T20:10:00.257Z,5.97
2023-02-11T20:13:29.372Z,5.97
2023-02-11T20:16:56.576Z,5.96
2023-02-11T20:20:24.091Z,5.94
2023-02-11T20:23:52.790Z,5.92
2023-02-11T20:27:20.273Z,5.90
2023-02-11T20:30:58.364Z,5.87
2023-02-11T20:34:26.022Z,5.85
2023-02-11T20:37:53.262Z,5.84
2023-02-11T20:41:22.382Z,5.82
2023-02-11T20:44:50.012Z,5.81
2023-02-11T20:48:17.354Z,5.78
2023-02-11T20:51:45.086Z,5.77
2023-02-11T20:55:13.485Z,5.74
2023-02-11T20:58:43.154Z,5.72
2023-02-11T21:02:13.275Z,5.69
2023-02-11T21:05:42.935Z,5.68
2023-02-11T21:09:12.719Z,5.66
2023-02-11T21:12:39.848Z,5.66
2023-02-11T21:16:08.837Z,5.65
2023-02-11T21:19:36.142Z,5.64
2023-02-11T21:23:03.536Z,5.65
2023-02-11T21:26:30.795Z,5.66
2023-02-11T21:29:57.848Z,5.66
2023-02-11T21:33:26.124Z,5.66
2023-02-11T21:36:53.320Z,5.65
2023-02-11T21:40:27.323Z,5.65
2023-02-11T21:43:54.980Z,5.64
2023-02-11T21:47:22.284Z,5.61
2023-02-11T21:50:50.068Z,5.58
2023-02-11T21:54:18.869Z,5.54
2023-02-11T21:57:46.609Z,5.49
2023-02-11T22:01:16.008Z,5.44
2023-02-11T22:04:43.408Z,5.39
2023-02-11T22:08:10.979Z,5.35
2023-02-11T22:11:39.111Z,5.31
2023-02-11T22:15:07.775Z,5.28
2023-02-11T22:18:35.425Z,5.24
2023-02-11T22:22:02.887Z,5.21
2023-02-11T22:25:30.269Z,5.17
2023-02-11T22:28:58.325Z,5.14
2023-02-11T22:32:25.633Z,5.11
2023-02-11T22:35:58.704Z,5.08
2023-02-11T22:39:26.319Z,5.06
2023-02-11T22:42:53.828Z,5.01
2023-02-11T22:46:22.093Z,4.92
2023-02-11T22:49:49.442Z,4.84
2023-02-11T22:53:16.660Z,4.80
2023-02-11T22:56:44.607Z,4.78
2023-02-11T23:00:14.553Z,4.77
2023-02-11T23:03:40.065Z,4.75
2023-02-11T23:07:07.159Z,4.73
2023-02-11T23:10:35.336Z,4.73
2023-02-11T23:14:04.178Z,4.74
2023-02-11T23:17:31.532Z,4.72
2023-02-11T23:21:03.451Z,4.69
2023-02-11T23:24:30.863Z,4.64
2023-02-11T23:27:58.103Z,4.60
2023-02-11T23:31:27.351Z,4.54
2023-02-11T23:34:54.736Z,4.47
2023-02-11T23:38:21.798Z,4.40
2023-02-11T23:41:49.627Z,4.34
2023-02-11T23:45:17.210Z,4.28
2023-02-11T23:48:52.498Z,4.24
2023-02-11T23:52:19.777Z,4.20
2023-02-11T23:55:48.387Z,4.14
2023-02-11T23:59:15.766Z,4.07
